createdAt,value
2022-09-20T00:02:01.025Z,1.25
2022-09-20T00:04:27.633Z,1.47
2022-09-20T00:06:54.163Z,1.70
2022-09-20T00:09:20.798Z,1.60
2022-09-20T00:11:48.952Z,1.67
2022-09-20T00:14:15.498Z,1.27
2022-09-20T00:16:42.302Z,1.80
2022-09-20T00:19:16.861Z,1.67
2022-09-20T00:21:43.444Z,1.67
2022-09-20T00:24:10.636Z,1.65
2022-09-20T00:26:37.141Z,2.00
2022-09-20T00:29:05.471Z,1.50
2022-09-20T00:31:32.177Z,1.75
2022-09-20T00:33:59.331Z,1.65
2022-09-20T00:36:26.143Z,1.83
2022-09-20T00:38:55.767Z,1.33
2022-09-20T00:41:22.343Z,1.50
2022-09-20T00:43:48.833Z,1.90
2022-09-20T00:46:24.735Z,1.35
2022-09-20T00:48:55.051Z,1.48
2022-09-20T00:51:26.543Z,1.38
2022-09-20T00:53:58.718Z,1.50
2022-09-20T00:56:29.524Z,1.50
2022-09-20T00:59:04.192Z,1.38
2022-09-20T01:01:32.554Z,1.45
2022-09-20T01:04:00.076Z,1.40
2022-09-20T01:06:26.988Z,1.60
2022-09-20T01:08:56.478Z,2.67
2022-09-20T01:11:23.349Z,1.73
2022-09-20T01:13:50.472Z,1.23
2022-09-20T01:16:18.882Z,1.60
2022-09-20T01:18:49.561Z,1.60
2022-09-20T01:21:18.043Z,1.58
2022-09-20T01:23:51.411Z,1.50
2022-09-20T01:26:37.747Z,1.30
2022-09-20T01:29:15.381Z,1.50
2022-09-20T01:31:46.257Z,2.10
2022-09-20T01:34:15.282Z,1.77
2022-09-20T01:36:49.421Z,1.67
2022-09-20T01:39:30.440Z,1.80
2022-09-20T01:41:58.874Z,2.00
2022-09-20T01:44:34.723Z,1.53
2022-09-20T01:47:05.642Z,1.80
2022-09-20T01:49:42.409Z,1.80
2022-09-20T01:52:45.132Z,1.85
2022-09-20T01:55:44.504Z,1.98
2022-09-20T01:58:46.958Z,2.10
2022-09-20T02:01:41.143Z,1.95
2022-09-20T02:04:33.630Z,1.95
2022-09-20T02:07:17.405Z,2.10
2022-09-20T02:10:10.865Z,1.75
2022-09-20T02:12:52.341Z,2.33
2022-09-20T02:15:33.649Z,1.80
2022-09-20T02:18:14.206Z,2.03
2022-09-20T02:20:48.009Z,2.08
2022-09-20T02:23:29.521Z,1.70
2022-09-20T02:26:11.485Z,2.10
2022-09-20T02:28:52.963Z,2.22
2022-09-20T02:31:33.489Z,2.20
2022-09-20T02:34:26.232Z,2.13
2022-09-20T02:37:07.923Z,2.17
2022-09-20T02:39:37.138Z,2.33
2022-09-20T02:42:12.214Z,1.73
2022-09-20T02:45:00.099Z,2.00
2022-09-20T02:47:33.302Z,2.20
2022-09-20T02:50:13.271Z,2.00
2022-09-20T02:52:49.530Z,1.63
2022-09-20T02:55:18.870Z,1.73
2022-09-20T02:57:55.464Z,2.05
2022-09-20T03:00:24.937Z,1.75
2022-09-20T03:03:06.096Z,1.70
2022-09-20T03:05:46.292Z,1.90
2022-09-20T03:08:29.643Z,1.92
2022-09-20T03:11:06.303Z,1.70
2022-09-20T03:13:53.328Z,1.90
2022-09-20T03:16:31.077Z,1.83
2022-09-20T03:19:04.810Z,1.77
2022-09-20T03:21:47.080Z,1.83
2022-09-20T03:24:24.019Z,1.77
2022-09-20T03:26:56.048Z,1.70
2022-09-20T03:29:40.702Z,2.25
2022-09-20T03:32:21.183Z,1.93
2022-09-20T03:34:57.231Z,1.90
2022-09-20T03:37:42.258Z,1.98
2022-09-20T03:40:25.886Z,1.58
2022-09-20T03:42:53.505Z,1.60
2022-09-20T03:45:53.736Z,2.10
2022-09-20T03:48:56.260Z,1.90
2022-09-20T03:51:33.889Z,1.80
2022-09-20T03:54:42.249Z,2.08
2022-09-20T03:57:34.248Z,1.60
2022-09-20T04:00:13.486Z,1.93
2022-09-20T04:02:55.378Z,1.60
2022-09-20T04:05:33.798Z,2.03
2022-09-20T04:08:13.801Z,1.65
2022-09-20T04:10:52.765Z,1.60
2022-09-20T04:13:30.750Z,1.87
2022-09-20T04:16:05.223Z,1.60
2022-09-20T04:18:38.287Z,1.90
2022-09-20T04:21:16.982Z,1.77
2022-09-20T04:23:50.704Z,2.60
2022-09-20T04:26:24.555Z,2.10
2022-09-20T04:28:56.610Z,2.00
2022-09-20T04:31:33.773Z,1.70
2022-09-20T04:34:04.509Z,1.50
2022-09-20T04:36:53.231Z,1.98
2022-09-20T04:39:31.426Z,2.20
2022-09-20T04:42:41.230Z,1.90
2022-09-20T04:45:49.159Z,2.20
2022-09-20T04:48:57.294Z,2.10
2022-09-20T04:51:54.591Z,1.73
2022-09-20T04:54:53.777Z,2.10
2022-09-20T04:57:47.199Z,1.98
2022-09-20T05:00:17.359Z,2.00
2022-09-20T05:03:17.390Z,2.13
2022-09-20T05:06:10.807Z,1.90
2022-09-20T05:09:14.051Z,2.10
2022-09-20T05:12:01.828Z,1.90
2022-09-20T05:15:12.682Z,2.17
2022-09-20T05:17:53.820Z,2.17
2022-09-20T05:20:55.408Z,2.08
2022-09-20T05:26:37.364Z,2.20
2022-09-20T05:32:02.031Z,2.10
2022-09-20T05:34:38.901Z,2.03
2022-09-20T05:37:16.061Z,1.93
2022-09-20T05:39:52.258Z,2.33
2022-09-20T05:42:23.496Z,2.20
2022-09-20T05:45:16.223Z,2.20
2022-09-20T05:47:54.027Z,2.03
2022-09-20T05:50:39.285Z,2.00
2022-09-20T05:53:36.470Z,2.30
2022-09-20T05:56:12.784Z,2.00
2022-09-20T05:58:54.436Z,2.20
2022-09-20T06:01:26.149Z,2.38
2022-09-20T06:04:07.616Z,2.57
2022-09-20T06:06:47.038Z,2.15
2022-09-20T06:09:44.469Z,2.50
2022-09-20T06:12:37.276Z,2.47
2022-09-20T06:15:16.748Z,2.65
2022-09-20T06:17:51.138Z,2.50
2022-09-20T06:20:28.017Z,2.53
2022-09-20T06:22:56.601Z,2.35
2022-09-20T06:25:26.315Z,2.60
2022-09-20T06:27:55.919Z,2.58
2022-09-20T06:30:26.338Z,2.57
2022-09-20T06:32:57.813Z,2.95
2022-09-20T06:35:31.927Z,2.75
2022-09-20T06:38:15.791Z,2.40
2022-09-20T06:40:46.327Z,2.42
2022-09-20T06:43:14.498Z,2.47
2022-09-20T06:45:41.168Z,2.78
2022-09-20T06:48:07.809Z,2.65
2022-09-20T06:50:35.930Z,3.10
2022-09-20T06:53:02.679Z,2.63
2022-09-20T06:55:32.530Z,3.00
2022-09-20T06:57:59.160Z,2.67
2022-09-20T07:00:25.733Z,2.90
2022-09-20T07:02:52.320Z,2.70
2022-09-20T07:05:19.153Z,3.03
2022-09-20T07:07:47.253Z,2.60
2022-09-20T07:10:14.252Z,2.85
2022-09-20T07:12:41.239Z,3.10
2022-09-20T07:15:08.883Z,2.90
2022-09-20T07:17:35.464Z,3.35
2022-09-20T07:20:02.841Z,3.03
2022-09-20T07:22:29.513Z,3.20
2022-09-20T07:24:57.436Z,2.78
2022-09-20T07:27:26.429Z,2.80
2022-09-20T07:29:55.783Z,2.83
2022-09-20T07:32:22.347Z,2.53
2022-09-20T07:34:48.905Z,3.17
2022-09-20T07:37:17.205Z,2.97
2022-09-20T07:39:44.648Z,2.63
2022-09-20T07:42:12.510Z,3.00
2022-09-20T07:44:39.056Z,2.73
2022-09-20T07:47:05.610Z,2.80
2022-09-20T07:49:32.232Z,2.60
2022-09-20T07:51:58.978Z,2.38
2022-09-20T07:54:25.699Z,2.72
2022-09-20T07:56:52.216Z,2.53
2022-09-20T07:59:20.062Z,2.40
2022-09-20T08:01:46.772Z,2.67
2022-09-20T08:04:13.885Z,2.30
2022-09-20T08:06:42.524Z,2.20
2022-09-20T08:09:11.410Z,2.10
2022-09-20T08:11:39.110Z,2.00
2022-09-20T08:14:07.751Z,2.42
2022-09-20T08:16:40.399Z,2.10
2022-09-20T08:19:07.156Z,2.00
2022-09-20T08:21:35.399Z,2.27
2022-09-20T08:24:02.238Z,2.00
2022-09-20T08:26:29.651Z,1.92
2022-09-20T08:28:57.796Z,1.80
2022-09-20T08:31:26.274Z,1.77
2022-09-20T08:33:54.460Z,2.00
2022-09-20T08:36:22.770Z,1.92
2022-09-20T08:41:42.255Z,2.08
2022-09-20T08:44:15.290Z,2.33
2022-09-20T08:46:46.737Z,1.83
2022-09-20T08:49:19.134Z,2.00
2022-09-20T08:51:48.653Z,2.20
2022-09-20T08:54:15.371Z,2.33
2022-09-20T08:56:42.810Z,2.17
2022-09-20T08:59:15.048Z,1.50
2022-09-20T09:01:41.831Z,1.70
2022-09-20T09:04:14.865Z,1.38
2022-09-20T09:06:42.594Z,1.33
2022-09-20T09:09:39.025Z,1.50
2022-09-20T09:12:09.272Z,1.40
2022-09-20T09:14:54.593Z,1.30
2022-09-20T09:17:30.462Z,0.98
2022-09-20T09:20:41.261Z,1.20
2022-09-20T09:23:24.692Z,1.50
2022-09-20T09:26:01.313Z,1.33
2022-09-20T09:29:19.569Z,1.45
2022-09-20T09:31:52.809Z,1.70
2022-09-20T09:34:40.892Z,1.60
2022-09-20T09:37:28.742Z,1.20
2022-09-20T09:40:46.429Z,1.63
2022-09-20T09:43:36.190Z,1.25
2022-09-20T09:46:39.981Z,1.30
2022-09-20T09:49:29.571Z,1.23
2022-09-20T09:52:33.983Z,1.27
2022-09-20T09:55:32.328Z,1.10
2022-09-20T10:01:41.026Z,0.88
2022-09-20T10:04:43.568Z,1.30
2022-09-20T10:07:36.061Z,0.77
2022-09-20T10:10:46.157Z,0.93
2022-09-20T10:13:45.979Z,0.80
2022-09-20T10:16:56.135Z,0.73
2022-09-20T10:20:21.993Z,0.80
2022-09-20T10:23:51.494Z,0.70
2022-09-20T10:27:14.021Z,1.00
2022-09-20T10:30:35.605Z,1.10
2022-09-20T10:33:33.143Z,0.77
2022-09-20T10:36:42.046Z,1.20
2022-09-20T10:39:47.174Z,0.70
2022-09-20T10:42:40.400Z,1.00
2022-09-20T10:45:50.886Z,0.63
2022-09-20T10:48:35.832Z,0.80
2022-09-20T10:51:34.259Z,0.93
2022-09-20T10:54:42.876Z,1.13
2022-09-20T11:04:46.615Z,0.90
2022-09-20T11:07:58.590Z,0.85
2022-09-20T11:10:48.661Z,1.15
2022-09-20T11:13:34.163Z,1.50
2022-09-20T11:16:23.883Z,2.00
2022-09-20T11:22:36.611Z,1.45
2022-09-20T11:25:47.987Z,1.10
2022-09-20T11:28:33.788Z,0.70
2022-09-20T11:31:13.126Z,0.98
2022-09-20T11:34:06.895Z,0.90
2022-09-20T11:39:39.634Z,0.80
2022-09-20T11:46:27.712Z,1.00
2022-09-20T11:58:18.016Z,1.20
2022-09-20T12:00:48.304Z,1.00
2022-09-20T12:03:31.226Z,0.80
2022-09-20T12:06:00.411Z,0.80
2022-09-20T12:08:31.250Z,1.10
2022-09-20T12:11:01.949Z,1.03
2022-09-20T12:13:28.743Z,1.13
2022-09-20T12:16:02.827Z,1.08
2022-09-20T12:18:46.751Z,1.45
2022-09-20T12:21:16.475Z,1.08
2022-09-20T12:24:12.782Z,1.27
2022-09-20T12:26:42.658Z,0.80
2022-09-20T12:29:52.574Z,1.13
2022-09-20T12:32:45.902Z,1.00
2022-09-20T12:35:55.415Z,1.08
2022-09-20T12:38:36.838Z,1.20
2022-09-20T12:41:27.570Z,0.90
2022-09-20T12:43:59.762Z,1.08
2022-09-20T12:46:32.512Z,1.10
2022-09-20T12:49:25.519Z,1.10
2022-09-20T12:51:52.729Z,1.07
2022-09-20T12:54:27.062Z,1.20
2022-09-20T12:56:55.643Z,1.00
2022-09-20T12:59:26.147Z,1.58
2022-09-20T13:01:53.363Z,1.17
2022-09-20T13:04:53.377Z,0.70
2022-09-20T13:07:36.430Z,1.20
2022-09-20T13:10:22.819Z,1.38
2022-09-20T13:12:54.720Z,1.05
2022-09-20T13:15:24.916Z,0.80
2022-09-20T13:17:54.944Z,1.10
2022-09-20T13:20:24.330Z,0.85
2022-09-20T13:22:56.023Z,0.82
2022-09-20T13:25:30.601Z,0.90
2022-09-20T13:28:05.636Z,0.75
2022-09-20T13:30:32.442Z,0.83
2022-09-20T13:33:20.838Z,1.13
2022-09-20T13:35:50.852Z,1.00
2022-09-20T13:38:18.747Z,1.00
2022-09-20T13:40:50.532Z,0.85
2022-09-20T13:43:26.522Z,0.97
2022-09-20T13:45:55.927Z,0.80
2022-09-20T13:48:25.952Z,0.80
2022-09-20T13:50:59.904Z,1.08
2022-09-20T13:53:45.039Z,0.80
2022-09-20T13:56:20.567Z,0.80
2022-09-20T13:58:48.940Z,0.68
2022-09-20T14:01:27.237Z,0.50
2022-09-20T14:03:54.220Z,0.60
2022-09-20T14:06:25.094Z,0.63
2022-09-20T14:08:51.767Z,0.90
2022-09-20T14:11:23.242Z,0.60
2022-09-20T14:13:51.454Z,0.82
2022-09-20T14:16:20.128Z,0.70
2022-09-20T14:18:53.492Z,0.70
2022-09-20T14:21:23.515Z,0.60
2022-09-20T14:23:51.952Z,0.88
2022-09-20T14:26:26.684Z,0.70
2022-09-20T14:28:54.135Z,0.70
2022-09-20T14:31:26.302Z,0.60
2022-09-20T14:33:57.125Z,0.70
2022-09-20T14:36:29.173Z,0.70
2022-09-20T14:38:59.092Z,0.73
2022-09-20T14:41:36.502Z,0.60
2022-09-20T14:44:05.863Z,0.50
2022-09-20T14:52:09.848Z,1.02
2022-09-20T14:53:50.238Z,0.80
2022-09-20T14:56:52.635Z,0.80
2022-09-20T15:02:50.511Z,0.70
2022-09-20T15:05:45.791Z,0.68
2022-09-20T15:08:19.108Z,0.80
2022-09-20T15:10:51.007Z,0.70
2022-09-20T15:13:19.282Z,0.93
2022-09-20T15:15:49.682Z,1.20
2022-09-20T15:18:20.532Z,0.77
2022-09-20T15:20:51.340Z,0.70
2022-09-20T15:23:37.541Z,0.80
2022-09-20T15:26:04.659Z,0.70
2022-09-20T15:28:35.245Z,0.87
2022-09-20T15:31:02.294Z,0.82
2022-09-20T15:33:31.125Z,1.10
2022-09-20T15:35:58.073Z,0.88
2022-09-20T15:38:45.555Z,0.77
2022-09-20T15:44:05.033Z,0.90
2022-09-20T15:46:32.311Z,0.73
2022-09-20T15:49:09.122Z,1.33
2022-09-20T15:51:41.358Z,1.00
2022-09-20T15:54:26.370Z,0.90
2022-09-20T15:56:53.020Z,0.70
2022-09-20T15:59:22.206Z,0.80
2022-09-20T16:01:49.298Z,0.80
2022-09-20T16:04:17.420Z,0.70
2022-09-20T16:06:46.078Z,1.00
2022-09-20T16:09:13.344Z,0.98
2022-09-20T16:11:40.401Z,1.10
2022-09-20T16:14:07.889Z,0.68
2022-09-20T16:16:40.392Z,1.15
2022-09-20T16:19:07.604Z,2.00
2022-09-20T16:21:36.582Z,1.15
2022-09-20T16:24:06.335Z,1.40
2022-09-20T16:26:34.039Z,1.15
2022-09-20T16:29:01.213Z,1.13
2022-09-20T16:31:34.269Z,1.30
2022-09-20T16:34:03.927Z,1.35
2022-09-20T16:36:30.845Z,1.77
2022-09-20T16:38:58.141Z,1.98
2022-09-20T16:41:26.420Z,1.83
2022-09-20T16:43:53.675Z,1.60
2022-09-20T16:46:20.626Z,1.30
2022-09-20T16:48:51.377Z,1.80
2022-09-20T16:51:19.377Z,2.13
2022-09-20T16:53:46.568Z,1.73
2022-09-20T16:56:21.331Z,1.10
2022-09-20T16:58:49.827Z,0.98
2022-09-20T17:01:18.173Z,1.35
2022-09-20T17:03:45.777Z,0.80
2022-09-20T17:06:12.918Z,0.80
2022-09-20T17:08:41.849Z,1.20
2022-09-20T17:11:10.385Z,1.02
2022-09-20T17:13:37.810Z,1.10
2022-09-20T17:16:06.389Z,1.35
2022-09-20T17:18:33.057Z,1.08
2022-09-20T17:21:04.771Z,1.00
2022-09-20T17:23:32.258Z,1.30
2022-09-20T17:26:04.721Z,0.70
2022-09-20T17:28:34.988Z,1.10
2022-09-20T17:31:01.853Z,0.95
2022-09-20T17:33:28.842Z,1.10
2022-09-20T17:35:55.368Z,1.27
2022-09-20T17:38:21.917Z,0.90
2022-09-20T17:40:57.899Z,0.90
2022-09-20T17:43:26.303Z,0.90
2022-09-20T17:45:52.944Z,0.70
2022-09-20T17:48:19.557Z,1.10
2022-09-20T17:50:57.752Z,1.10
2022-09-20T17:53:26.505Z,1.77
2022-09-20T17:55:55.610Z,2.45
2022-09-20T17:58:29.057Z,3.47
2022-09-20T18:01:04.600Z,2.97
2022-09-20T18:03:37.812Z,1.90
2022-09-20T18:06:11.271Z,1.70
2022-09-20T18:08:37.996Z,1.45
2022-09-20T18:11:07.197Z,1.47
2022-09-20T18:13:59.597Z,1.70
2022-09-20T18:16:29.284Z,1.40
2022-09-20T18:18:56.224Z,1.25
2022-09-20T18:21:24.813Z,3.28
2022-09-20T18:23:52.000Z,1.90
2022-09-20T18:26:22.086Z,2.55
2022-09-20T18:28:53.617Z,2.78
2022-09-20T18:31:22.664Z,2.80
2022-09-20T18:33:54.640Z,2.60
2022-09-20T18:36:22.266Z,2.60
2022-09-20T18:38:48.906Z,3.40
2022-09-20T18:41:15.555Z,2.50
2022-09-20T18:43:44.742Z,1.80
2022-09-20T18:46:11.682Z,2.10
2022-09-20T18:48:38.292Z,2.20
2022-09-20T18:51:09.528Z,2.10
2022-09-20T18:53:37.506Z,2.45
2022-09-20T18:56:08.613Z,2.45
2022-09-20T18:58:38.837Z,2.35
2022-09-20T19:01:24.896Z,1.97
2022-09-20T19:04:03.075Z,2.60
2022-09-20T19:06:39.515Z,2.40
2022-09-20T19:09:13.088Z,2.35
2022-09-20T19:11:49.108Z,2.00
2022-09-20T19:14:22.072Z,2.13
2022-09-20T19:16:55.779Z,2.13
2022-09-20T19:19:31.411Z,1.85
2022-09-20T19:22:16.570Z,2.10
2022-09-20T19:25:10.432Z,2.30
2022-09-20T19:27:44.209Z,2.10
2022-09-20T19:30:14.074Z,2.10
2022-09-20T19:32:48.579Z,2.60
2022-09-20T19:35:19.582Z,2.78
2022-09-20T19:38:01.833Z,2.67
2022-09-20T19:40:39.279Z,2.73
2022-09-20T19:43:22.980Z,2.53
2022-09-20T19:45:59.735Z,2.70
2022-09-20T19:48:39.685Z,2.60
2022-09-20T19:51:10.787Z,3.40
2022-09-20T19:53:41.678Z,4.83
2022-09-20T19:56:23.987Z,5.85
2022-09-20T19:58:51.501Z,2.38
2022-09-20T20:01:21.717Z,2.50
2022-09-20T20:03:49.160Z,2.90
2022-09-20T20:06:26.730Z,3.60
2022-09-20T20:09:03.467Z,4.68
2022-09-20T20:11:42.444Z,4.88
2022-09-20T20:14:18.901Z,3.97
2022-09-20T20:16:57.646Z,2.20
2022-09-20T20:19:41.608Z,2.00
2022-09-20T20:22:25.345Z,2.10
2022-09-20T20:24:54.248Z,1.83
2022-09-20T20:27:21.195Z,1.63
2022-09-20T20:29:50.253Z,1.77
2022-09-20T20:32:17.188Z,1.40
2022-09-20T20:34:43.794Z,1.63
2022-09-20T20:37:10.341Z,2.08
2022-09-20T20:39:39.646Z,2.20
2022-09-20T20:42:13.513Z,1.70
2022-09-20T20:44:41.998Z,2.20
2022-09-20T20:47:08.567Z,1.80
2022-09-20T20:49:43.630Z,1.83
2022-09-20T20:52:10.293Z,2.10
2022-09-20T20:54:44.072Z,1.80
2022-09-20T20:57:15.301Z,2.00
2022-09-20T21:00:00.567Z,2.40
2022-09-20T21:02:32.522Z,1.90
2022-09-20T21:18:50.026Z,2.50
2022-09-20T21:21:53.906Z,2.42
2022-09-20T21:24:53.362Z,2.20
2022-09-20T21:30:23.095Z,2.40
2022-09-20T21:32:56.067Z,2.45
2022-09-20T21:35:29.056Z,2.17
2022-09-20T21:37:57.262Z,2.15
2022-09-20T21:40:34.965Z,2.13
2022-09-20T21:43:03.199Z,2.10
2022-09-20T21:45:34.062Z,2.05
2022-09-20T21:48:07.419Z,3.00
2022-09-20T21:50:41.342Z,2.03
2022-09-20T21:56:27.298Z,1.92
2022-09-20T22:02:01.687Z,2.05
2022-09-20T22:04:31.781Z,2.13
2022-09-20T22:07:00.184Z,1.83
2022-09-20T22:09:32.799Z,1.77
2022-09-20T22:12:08.054Z,1.80
2022-09-20T22:14:45.525Z,1.88
2022-09-20T22:17:34.246Z,1.80
2022-09-20T22:20:19.221Z,1.67
2022-09-20T22:22:57.916Z,1.73
2022-09-20T22:25:37.060Z,1.90
2022-09-20T22:28:10.771Z,1.60
2022-09-20T22:30:46.232Z,1.52
2022-09-20T22:33:56.817Z,1.67
2022-09-20T22:36:32.270Z,1.60
2022-09-20T22:39:01.793Z,1.38
2022-09-20T22:41:30.397Z,1.60
2022-09-20T22:43:57.350Z,1.70
2022-09-20T22:46:26.211Z,2.03
2022-09-20T22:48:53.496Z,2.20
2022-09-20T22:51:23.577Z,2.45
2022-09-20T22:53:55.701Z,3.03
2022-09-20T22:56:40.996Z,1.73
2022-09-20T22:59:10.738Z,1.53
2022-09-20T23:01:45.928Z,1.52
2022-09-20T23:04:16.396Z,1.70
2022-09-20T23:06:53.159Z,2.25
2022-09-20T23:09:54.989Z,2.28
2022-09-20T23:12:44.488Z,2.53
2022-09-20T23:15:14.373Z,2.50
2022-09-20T23:17:49.729Z,2.55
2022-09-20T23:20:19.687Z,2.50
2022-09-20T23:22:46.736Z,2.33
2022-09-20T23:25:28.015Z,2.10
2022-09-20T23:28:04.785Z,1.67
2022-09-20T23:30:36.248Z,2.13
2022-09-20T23:33:23.817Z,1.77
2022-09-20T23:35:58.454Z,1.75
2022-09-20T23:38:29.313Z,1.97
2022-09-20T23:41:04.364Z,2.10
2022-09-20T23:43:42.268Z,1.92
2022-09-20T23:46:10.727Z,1.80
2022-09-20T23:48:38.650Z,2.17
2022-09-20T23:51:09.869Z,2.17
2022-09-20T23:53:54.214Z,1.58
2022-09-20T23:56:24.058Z,2.08
2022-09-20T23:59:20.102Z,2.00
